Time;durP1;ratioP1;P1;durP2;ratioP2;P2;SDS_P1;SDS_P2;PMS_P1;PMS_P2;Temp;Humidity;BMP_temperature;BMP_pressure;BME280_temperature;BME280_humidity;BME280_pressure;Samples;Min_cycle;Max_cycle;Signal;HPM_P1;HPM_P2
2020/12/30 00:00:46;;;;;;;50.03;34.15;;;;;;;-0.13;100.00;99576.56;5212425;28;20475;-72
2020/12/30 00:03:17;;;;;;;50.17;35.10;;;;;;;-0.12;100.00;99580.78;5213546;28;20489;-71
2020/12/30 00:05:48;;;;;;;57.00;35.83;;;;;;;-0.10;100.00;99578.94;5213780;28;20483;-70
2020/12/30 00:08:20;;;;;;;55.53;35.50;;;;;;;-0.12;100.00;99578.19;5213259;28;20548;-72
2020/12/30 00:10:51;;;;;;;58.42;36.80;;;;;;;-0.10;100.00;99573.78;5213221;28;20137;-71
2020/12/30 00:13:22;;;;;;;54.67;36.00;;;;;;;-0.09;100.00;99575.44;5213966;28;20017;-73
2020/12/30 00:15:53;;;;;;;52.40;34.72;;;;;;;-0.11;100.00;99577.31;5213487;28;20037;-71
2020/12/30 00:18:25;;;;;;;52.85;35.53;;;;;;;-0.11;100.00;99572.16;5212849;28;20038;-71
2020/12/30 00:20:56;;;;;;;54.42;34.70;;;;;;;-0.17;100.00;99565.63;5213205;28;20121;-72
2020/12/30 00:23:28;;;;;;;56.35;36.53;;;;;;;-0.10;100.00;99566.91;5214213;28;20112;-70
2020/12/30 00:25:59;;;;;;;54.25;38.33;;;;;;;-0.09;100.00;99572.88;5212311;28;20025;-71
2020/12/30 00:28:30;;;;;;;58.17;36.10;;;;;;;-0.09;100.00;99572.88;5211886;28;20430;-70
2020/12/30 00:31:01;;;;;;;53.78;35.67;;;;;;;-0.10;100.00;99573.78;5213908;28;20386;-71
2020/12/30 00:33:33;;;;;;;54.70;35.33;;;;;;;-0.13;100.00;99576.56;5213978;28;20455;-70
2020/12/30 00:36:06;;;;;;;53.45;35.10;;;;;;;-0.11;100.00;99580.69;5210786;28;20022;-73
2020/12/30 00:38:37;;;;;;;57.70;35.55;;;;;;;-0.13;100.00;99585.09;5214607;28;20028;-71
2020/12/30 00:41:14;;;;;;;53.20;35.53;;;;;;;-0.11;100.00;99587.59;5213194;28;20433;-70
2020/12/30 00:43:45;;;;;;;55.55;35.88;;;;;;;-0.14;100.00;99585.19;5212438;28;20046;-71
2020/12/30 00:46:17;;;;;;;56.13;36.42;;;;;;;-0.12;100.00;99594.47;5213517;28;20513;-71
2020/12/30 00:48:48;;;;;;;58.40;34.90;;;;;;;-0.09;100.00;99593.47;5213967;28;20459;-70
2020/12/30 00:51:20;;;;;;;62.30;37.28;;;;;;;-0.09;100.00;99596.84;5212221;28;20068;-71
2020/12/30 00:53:51;;;;;;;59.47;35.45;;;;;;;-0.05;100.00;99597.50;5213139;28;20041;-71
2020/12/30 00:56:22;;;;;;;56.70;35.90;;;;;;;-0.02;100.00;99593.00;5212909;28;20383;-71
2020/12/30 00:58:53;;;;;;;58.13;35.42;;;;;;;0.02;100.00;99598.78;5212789;28;20545;-71
2020/12/30 01:01:25;;;;;;;54.33;35.50;;;;;;;0.06;100.00;99600.25;5212078;28;20033;-70
2020/12/30 01:03:56;;;;;;;59.67;36.45;;;;;;;0.10;100.00;99603.47;5213364;28;20025;-71
2020/12/30 01:06:27;;;;;;;63.55;38.28;;;;;;;0.17;100.00;99613.28;5211727;28;20026;-70
2020/12/30 01:08:59;;;;;;;65.57;40.13;;;;;;;0.20;100.00;99604.56;5213274;28;20430;-70
2020/12/30 01:11:30;;;;;;;58.65;38.92;;;;;;;0.24;100.00;99608.59;5212564;28;20144;-71
2020/12/30 01:14:01;;;;;;;56.72;37.78;;;;;;;0.23;100.00;99609.53;5212386;28;20029;-72
2020/12/30 01:16:33;;;;;;;61.15;38.60;;;;;;;0.33;100.00;99620.91;5213693;28;20049;-70
2020/12/30 01:19:06;;;;;;;57.40;37.97;;;;;;;0.35;100.00;99620.81;5212890;28;20157;-71
2020/12/30 01:21:41;;;;;;;58.17;37.15;;;;;;;0.39;100.00;99619.72;5211507;28;20390;-71
2020/12/30 01:24:12;;;;;;;60.08;36.50;;;;;;;0.40;100.00;99622.19;5213247;28;20434;-71
2020/12/30 01:26:45;;;;;;;64.18;38.80;;;;;;;0.40;100.00;99613.63;5213862;28;20115;-71
2020/12/30 01:29:16;;;;;;;65.18;38.40;;;;;;;0.47;100.00;99627.78;5210875;28;20036;-71
2020/12/30 01:31:48;;;;;;;54.40;36.55;;;;;;;0.50;100.00;99631.94;5213622;28;20033;-70
2020/12/30 01:34:19;;;;;;;59.95;37.08;;;;;;;0.53;100.00;99636.84;5217144;28;20056;-72
2020/12/30 01:36:52;;;;;;;62.90;37.92;;;;;;;0.55;100.00;99632.44;5215355;28;20030;-71
2020/12/30 01:39:23;;;;;;;62.47;37.50;;;;;;;0.58;100.00;99634.84;5216134;28;20518;-71
2020/12/30 01:41:58;;;;;;;61.13;36.95;;;;;;;0.61;100.00;99638.06;5218381;28;20022;-71
2020/12/30 01:44:29;;;;;;;62.67;37.90;;;;;;;0.66;100.00;99635.19;5214810;28;20050;-71
2020/12/30 01:47:02;;;;;;;57.45;35.35;;;;;;;0.63;100.00;99623.31;5217014;28;20041;-70
2020/12/30 01:49:33;;;;;;;56.72;35.67;;;;;;;0.64;100.00;99626.72;5217381;28;20022;-71
2020/12/30 01:52:05;;;;;;;54.75;35.90;;;;;;;0.71;100.00;99636.53;5215303;28;20032;-71
2020/12/30 01:54:36;;;;;;;57.83;37.20;;;;;;;0.75;100.00;99638.91;5216197;28;20090;-71
2020/12/30 01:57:08;;;;;;;57.72;37.10;;;;;;;0.74;100.00;99632.94;5217062;28;20037;-70
2020/12/30 01:59:39;;;;;;;59.42;36.60;;;;;;;0.80;100.00;99642.06;5215661;28;20062;-70
2020/12/30 02:02:12;;;;;;;60.72;37.95;;;;;;;0.84;100.00;99649.50;5215574;28;20483;-70
2020/12/30 02:04:54;;;;;;;;;;;;;;;0.91;100.00;99643.03;5217562;28;20069;-70
2020/12/30 02:07:25;;;;;;;53.25;36.40;;;;;;;0.91;100.00;99640.44;5214855;28;20007;-70
2020/12/30 02:09:59;;;;;;;62.08;37.78;;;;;;;0.95;100.00;99643.66;5216995;28;20048;-71
2020/12/30 02:12:31;;;;;;;56.10;37.22;;;;;;;0.95;100.00;99643.66;5217607;28;20142;-71
2020/12/30 02:15:03;;;;;;;56.53;37.28;;;;;;;0.92;100.00;99639.50;5215083;28;20151;-70
2020/12/30 02:17:34;;;;;;;55.67;35.80;;;;;;;0.98;100.00;99640.84;5215955;28;20076;-70
2020/12/30 02:20:05;;;;;;;54.80;34.72;;;;;;;1.01;100.00;99645.81;5216930;28;20048;-71
2020/12/30 02:22:36;;;;;;;52.88;34.25;;;;;;;1.04;100.00;99645.63;5216479;28;20025;-70
2020/12/30 02:25:08;;;;;;;54.88;35.10;;;;;;;1.07;100.00;99649.78;5213115;28;20038;-70
2020/12/30 02:27:39;;;;;;;54.97;34.45;;;;;;;1.08;100.00;99644.50;5216920;28;20053;-72
2020/12/30 02:30:11;;;;;;;55.72;34.85;;;;;;;1.12;100.00;99653.69;5216488;28;20026;-70
2020/12/30 02:32:42;;;;;;;52.38;34.63;;;;;;;1.08;100.00;99641.91;5214098;28;20026;-70
2020/12/30 02:35:24;;;;;;;53.20;34.33;;;;;;;1.17;100.00;99656.78;5216944;28;20541;-71
2020/12/30 02:37:55;;;;;;;54.20;34.50;;;;;;;1.19;100.00;99660.09;5217273;28;20034;-70
2020/12/30 02:40:27;;;;;;;52.95;35.20;;;;;;;1.22;100.00;99659.09;5214320;28;20079;-70
2020/12/30 02:42:58;;;;;;;52.35;33.75;;;;;;;1.23;100.00;99660.72;5216887;28;20030;-70
2020/12/30 02:45:29;;;;;;;50.85;34.50;;;;;;;1.26;100.00;99662.31;5213934;28;20050;-72
2020/12/30 02:48:01;;;;;;;53.30;33.92;;;;;;;1.29;100.00;99659.50;5214645;28;20026;-70
2020/12/30 02:50:32;;;;;;;51.05;33.63;;;;;;;1.32;100.00;99667.03;5216062;28;20025;-70
2020/12/30 02:53:03;;;;;;;50.58;32.42;;;;;;;1.33;100.00;99664.38;5216625;28;20391;-71
2020/12/30 02:55:34;;;;;;;54.00;33.20;;;;;;;1.34;100.00;99660.88;5213589;28;20557;-70
2020/12/30 02:58:06;;;;;;;47.65;32.70;;;;;;;1.38;100.00;99667.47;5216646;28;20037;-71
2020/12/30 03:00:37;;;;;;;46.75;31.73;;;;;;;1.39;100.00;99661.38;5213432;28;20041;-70
2020/12/30 03:03:08;;;;;;;51.90;31.38;;;;;;;1.41;100.00;99663.88;5210801;28;20048;-70
2020/12/30 03:05:39;;;;;;;49.60;33.88;;;;;;;1.44;100.00;99661.91;5207770;28;20034;-70
2020/12/30 03:08:11;;;;;;;46.92;32.20;;;;;;;1.45;100.00;99668.72;5212917;28;20073;-70
2020/12/30 03:10:42;;;;;;;50.58;33.38;;;;;;;1.46;100.00;99674.72;5212609;28;20034;-70
2020/12/30 03:13:13;;;;;;;49.42;32.65;;;;;;;1.48;100.00;99666.84;5209201;28;20184;-70
2020/12/30 03:15:44;;;;;;;49.67;33.80;;;;;;;1.47;100.00;99676.34;5213968;28;20486;-70
2020/12/30 03:18:16;;;;;;;50.30;33.25;;;;;;;1.48;100.00;99678.03;5210444;28;20033;-70
2020/12/30 03:20:47;;;;;;;52.83;34.65;;;;;;;1.49;100.00;99684.84;5213093;28;20032;-70
2020/12/30 03:23:18;;;;;;;47.55;32.25;;;;;;;1.50;100.00;99678.75;5215836;28;20076;-70
2020/12/30 03:25:49;;;;;;;52.17;33.72;;;;;;;1.51;100.00;99680.38;5213811;28;20064;-71
2020/12/30 03:28:21;;;;;;;45.40;32.72;;;;;;;1.52;100.00;99684.66;5214718;28;20057;-70
2020/12/30 03:30:52;;;;;;;51.60;33.08;;;;;;;1.52;100.00;99684.66;5215187;28;20025;-70
2020/12/30 03:33:23;;;;;;;46.38;33.10;;;;;;;1.53;100.00;99683.72;5214856;28;20663;-70
2020/12/30 03:35:55;;;;;;;48.05;33.65;;;;;;;1.55;100.00;99686.19;5212270;28;20036;-71
2020/12/30 03:38:26;;;;;;;53.17;33.60;;;;;;;1.55;100.00;99691.34;5215993;28;20034;-70
2020/12/30 03:40:57;;;;;;;42.42;32.25;;;;;;;1.58;100.00;99685.97;5215235;28;20022;-71
2020/12/30 03:43:28;;;;;;;46.65;33.25;;;;;;;1.57;100.00;99684.34;5211887;28;20571;-70
2020/12/30 03:46:00;;;;;;;45.20;31.85;;;;;;;1.58;100.00;99686.81;5214957;28;20356;-70
2020/12/30 03:48:31;;;;;;;50.47;32.03;;;;;;;1.57;100.00;99687.75;5215117;28;20101;-71
2020/12/30 03:51:02;;;;;;;45.22;32.75;;;;;;;1.57;100.00;99690.31;5213932;28;20168;-70
2020/12/30 03:53:34;;;;;;;45.83;33.25;;;;;;;1.58;100.00;99693.72;5214300;28;20107;-70
2020/12/30 03:56:05;;;;;;;43.67;32.08;;;;;;;1.58;100.00;99694.53;5213910;28;20033;-70
2020/12/30 03:58:36;;;;;;;44.25;31.85;;;;;;;1.60;100.00;99702.22;5211752;28;20522;-70
2020/12/30 04:01:07;;;;;;;44.00;31.52;;;;;;;1.60;100.00;99689.31;5213690;28;20030;-71
2020/12/30 04:03:39;;;;;;;44.60;30.45;;;;;;;1.60;100.00;99697.03;5215127;28;20038;-70
2020/12/30 04:06:10;;;;;;;49.75;32.60;;;;;;;1.59;100.00;99700.53;5211383;28;20073;-70
2020/12/30 04:08:41;;;;;;;45.67;30.73;;;;;;;1.60;100.00;99700.44;5213416;28;20525;-71
2020/12/30 04:11:12;;;;;;;43.75;31.00;;;;;;;1.59;100.00;99687.63;5214698;28;20037;-71
2020/12/30 04:13:44;;;;;;;43.67;30.80;;;;;;;1.57;100.00;99681.75;5211622;28;20061;-70
2020/12/30 04:16:22;;;;;;;43.38;30.48;;;;;;;1.56;100.00;99680.09;5214374;28;20033;-71
2020/12/30 04:18:53;;;;;;;41.78;28.30;;;;;;;1.59;100.00;99690.22;5213275;28;20033;-72
2020/12/30 04:21:25;;;;;;;39.20;28.17;;;;;;;1.60;100.00;99697.88;5212795;28;20018;-71
2020/12/30 04:23:56;;;;;;;40.65;29.35;;;;;;;1.58;100.00;99689.38;5214070;28;20037;-70
2020/12/30 04:26:27;;;;;;;45.00;28.48;;;;;;;1.55;100.00;99689.59;5214080;28;20037;-71
2020/12/30 04:28:59;;;;;;;36.17;27.50;;;;;;;1.58;100.00;99699.72;5211426;28;20390;-71
2020/12/30 04:31:30;;;;;;;38.53;27.60;;;;;;;1.48;100.00;99680.63;5213179;28;20021;-71
2020/12/30 04:34:01;;;;;;;36.42;26.27;;;;;;;1.56;100.00;99695.59;5213700;28;20030;-72
2020/12/30 04:36:33;;;;;;;41.08;28.65;;;;;;;1.53;100.00;99701.78;5211050;28;20483;-70
2020/12/30 04:39:04;;;;;;;38.63;27.23;;;;;;;1.52;100.00;99702.72;5214560;28;20168;-70
2020/12/30 04:41:38;;;;;;;37.25;27.20;;;;;;;1.51;100.00;99700.22;5214507;28;20053;-72
2020/12/30 04:44:11;;;;;;;38.55;27.63;;;;;;;1.48;100.00;99706.44;5211168;28;20053;-72
2020/12/30 04:46:43;;;;;;;;;;;;;;;1.56;100.00;99708.50;5212158;28;20505;-70
2020/12/30 04:49:15;;;;;;;36.28;25.67;;;;;;;1.45;100.00;99706.63;5214102;28;19917;-70
2020/12/30 04:51:47;;;;;;;39.40;25.70;;;;;;;1.42;100.00;99702.47;5211895;28;20080;-70
2020/12/30 04:54:20;;;;;;;38.10;26.58;;;;;;;1.40;100.00;99706.94;5213348;28;20398;-72
2020/12/30 04:57:03;;;;;;;36.60;26.65;;;;;;;1.39;100.00;99723.31;5214071;28;20061;-70
2020/12/30 04:59:40;;;;;;;37.67;26.33;;;;;;;1.35;100.00;99705.56;5210467;28;20109;-70
2020/12/30 05:02:12;;;;;;;35.28;26.83;;;;;;;1.33;100.00;99705.66;5205957;28;20041;-70
2020/12/30 05:04:43;;;;;;;40.40;27.67;;;;;;;1.31;100.00;99711.84;5212165;28;20037;-71
2020/12/30 05:07:15;;;;;;;38.00;26.85;;;;;;;1.35;100.00;99721.03;5209359;28;20068;-70
2020/12/30 05:09:46;;;;;;;37.17;26.02;;;;;;;1.34;100.00;99716.81;5212473;28;20041;-70
2020/12/30 05:12:19;;;;;;;33.78;24.95;;;;;;;1.34;100.00;99716.81;5213779;28;20411;-70
2020/12/30 05:14:51;;;;;;;33.22;25.77;;;;;;;1.36;100.00;99720.91;5211361;28;20037;-72
2020/12/30 05:17:22;;;;;;;35.33;25.48;;;;;;;1.36;100.00;99726.09;5212154;28;20391;-70
2020/12/30 05:19:53;;;;;;;36.33;26.00;;;;;;;1.39;100.00;99727.66;5214286;28;20076;-70
2020/12/30 05:22:24;;;;;;;36.78;27.77;;;;;;;1.40;100.00;99726.72;5213169;28;20385;-70
2020/12/30 05:24:56;;;;;;;40.58;27.00;;;;;;;1.41;100.00;99733.56;5213420;28;20030;-70
2020/12/30 05:27:27;;;;;;;37.58;27.50;;;;;;;1.35;100.00;99727.03;5213185;28;20029;-71
2020/12/30 05:29:58;;;;;;;33.88;26.00;;;;;;;1.44;100.00;99733.34;5213234;28;20044;-71
2020/12/30 05:32:35;;;;;;;38.97;28.20;;;;;;;1.46;100.00;99742.63;5212742;28;20034;-70
2020/12/30 05:35:06;;;;;;;40.85;26.83;;;;;;;1.44;100.00;99735.94;5213574;28;20033;-72
2020/12/30 05:37:40;;;;;;;40.42;28.40;;;;;;;1.44;100.00;99739.34;5211383;28;20034;-72
2020/12/30 05:40:22;;;;;;;34.25;26.52;;;;;;;1.44;100.00;99744.50;5213701;28;20498;-71
2020/12/30 05:42:53;;;;;;;38.85;26.98;;;;;;;1.40;100.00;99742.19;5212161;28;20037;-71
2020/12/30 05:45:24;;;;;;;36.25;25.88;;;;;;;1.39;100.00;99740.56;5211017;28;20058;-70
2020/12/30 05:48:10;;;;;;;39.20;27.55;;;;;;;1.40;100.00;99747.34;5213087;28;20029;-70
2020/12/30 05:50:57;;;;;;;37.42;26.40;;;;;;;1.39;100.00;99758.63;5213584;28;20029;-70
2020/12/30 05:53:29;;;;;;;36.65;26.75;;;;;;;1.36;100.00;99753.66;5211942;28;20044;-70
2020/12/30 05:56:10;;;;;;;35.53;26.73;;;;;;;1.37;100.00;99755.31;5211915;28;20495;-70
2020/12/30 05:58:43;;;;;;;37.67;26.13;;;;;;;1.39;100.00;99756.03;5214058;28;20547;-71
2020/12/30 06:01:27;;;;;;;35.45;26.55;;;;;;;1.40;100.00;99758.53;5210907;28;20041;-71
2020/12/30 06:04:16;;;;;;;34.00;25.67;;;;;;;1.41;100.00;99760.19;5212540;28;20052;-70
2020/12/30 06:06:48;;;;;;;35.10;25.45;;;;;;;1.38;100.00;99754.38;5213269;28;20029;-70
2020/12/30 06:09:19;;;;;;;33.50;24.75;;;;;;;1.39;100.00;99762.03;5211875;28;20026;-69
2020/12/30 06:11:53;;;;;;;38.88;26.05;;;;;;;1.39;100.00;99766.34;5212777;28;20525;-70
2020/12/30 06:14:24;;;;;;;34.35;24.25;;;;;;;1.40;100.00;99761.13;5212771;28;20588;-70
2020/12/30 06:16:55;;;;;;;37.90;25.63;;;;;;;1.40;100.00;99763.69;5211507;28;20076;-70
2020/12/30 06:19:27;;;;;;;37.70;25.83;;;;;;;1.41;100.00;99767.09;5213148;28;20044;-69
2020/12/30 06:22:00;;;;;;;33.10;24.73;;;;;;;1.42;100.00;99772.16;5217183;28;20083;-70
2020/12/30 06:24:31;;;;;;;37.63;25.77;;;;;;;1.44;100.00;99769.50;5214541;28;20026;-70
2020/12/30 06:27:03;;;;;;;34.47;25.90;;;;;;;1.48;100.00;99783.84;5215581;28;20052;-71
2020/12/30 06:29:34;;;;;;;34.25;26.08;;;;;;;1.48;100.00;99783.00;5217135;28;20049;-71
2020/12/30 06:32:06;;;;;;;34.05;25.83;;;;;;;1.48;100.00;99785.59;5215281;28;20065;-71
2020/12/30 06:34:37;;;;;;;37.63;26.15;;;;;;;1.49;100.00;99789.84;5215951;28;20487;-71
2020/12/30 06:37:08;;;;;;;33.42;26.98;;;;;;;1.47;100.00;99782.19;5215641;28;20060;-72
2020/12/30 06:39:39;;;;;;;35.33;26.98;;;;;;;1.46;100.00;99788.28;5215390;28;20053;-71
2020/12/30 06:42:11;;;;;;;38.05;27.40;;;;;;;1.46;100.00;99796.84;5216448;28;20483;-72
2020/12/30 06:44:43;;;;;;;39.60;28.08;;;;;;;1.42;100.00;99810.03;5214206;28;20507;-71
2020/12/30 06:47:14;;;;;;;37.20;28.52;;;;;;;1.45;100.00;99802.09;5215378;28;20546;-71
2020/12/30 06:49:46;;;;;;;39.90;30.20;;;;;;;1.40;100.00;99804.13;5211928;28;20037;-72
2020/12/30 06:52:28;;;;;;;41.38;28.75;;;;;;;1.45;100.00;99802.09;5216444;28;20025;-71
2020/12/30 06:55:00;;;;;;;37.22;28.75;;;;;;;1.46;100.00;99814.09;5214318;28;20033;-71
2020/12/30 06:57:39;;;;;;;39.35;30.75;;;;;;;1.49;100.00;99825.97;5216323;28;20030;-71
2020/12/30 07:00:32;;;;;;;39.58;29.15;;;;;;;1.49;100.00;99818.22;5214614;28;20501;-71
2020/12/30 07:03:14;;;;;;;37.50;28.63;;;;;;;1.45;100.00;99820.19;5214015;28;20045;-72
2020/12/30 07:05:46;;;;;;;40.55;28.88;;;;;;;1.46;100.00;99835.56;5215372;28;20029;-71
2020/12/30 07:08:37;;;;;;;42.40;29.70;;;;;;;1.48;100.00;99838.06;5214118;28;20022;-71
2020/12/30 07:11:08;;;;;;;37.92;28.40;;;;;;;1.45;100.00;99838.25;5215512;28;20433;-71
2020/12/30 07:13:40;;;;;;;39.10;28.63;;;;;;;1.43;100.00;99842.66;5214436;28;20030;-73
2020/12/30 07:16:19;;;;;;;38.67;29.10;;;;;;;1.44;100.00;99852.06;5214118;28;20056;-72
2020/12/30 07:18:51;;;;;;;36.60;29.13;;;;;;;1.41;100.00;99853.09;5213872;28;20025;-71
2020/12/30 07:21:23;;;;;;;41.28;28.77;;;;;;;1.43;100.00;99853.81;5214439;28;20049;-71
2020/12/30 07:23:56;;;;;;;39.33;29.23;;;;;;;1.45;100.00;99858.88;5215300;28;20037;-71
2020/12/30 07:26:27;;;;;;;42.88;27.95;;;;;;;1.42;100.00;99853.91;5213938;28;20084;-71
2020/12/30 07:28:59;;;;;;;39.20;28.70;;;;;;;1.42;100.00;99851.34;5213663;28;20026;-71
2020/12/30 07:31:34;;;;;;;43.22;29.45;;;;;;;1.49;100.00;99860.34;5214637;28;20033;-71
2020/12/30 07:34:16;;;;;;;42.25;28.67;;;;;;;1.36;100.00;99844.78;5214244;28;20034;-71
2020/12/30 07:36:48;;;;;;;38.45;29.00;;;;;;;1.49;100.00;99859.53;5208822;28;20061;-71
2020/12/30 07:39:42;;;;;;;43.58;28.45;;;;;;;1.55;100.00;99872.84;5209907;28;20075;-71
2020/12/30 07:42:27;;;;;;;38.40;27.83;;;;;;;1.55;100.00;99880.59;5212282;28;20148;-71
2020/12/30 07:44:58;;;;;;;41.88;29.08;;;;;;;1.57;100.00;99883.09;5211115;28;20442;-71
2020/12/30 07:47:29;;;;;;;38.83;29.10;;;;;;;1.59;100.00;99887.25;5212964;28;20026;-71
2020/12/30 07:50:03;;;;;;;39.53;29.08;;;;;;;1.57;100.00;99877.94;5213537;28;20117;-71
2020/12/30 07:52:34;;;;;;;41.97;29.50;;;;;;;1.62;100.00;99894.78;5214157;28;20022;-71
2020/12/30 07:55:05;;;;;;;41.05;28.42;;;;;;;1.62;100.00;99892.19;5213657;28;20025;-72
2020/12/30 07:57:37;;;;;;;42.53;27.73;;;;;;;1.63;100.00;99896.47;5212466;28;20479;-72
2020/12/30 08:00:11;;;;;;;44.28;30.48;;;;;;;1.63;100.00;99890.44;5211852;28;20037;-71
2020/12/30 08:02:42;;;;;;;40.20;28.67;;;;;;;1.64;100.00;99903.28;5214281;28;20036;-71
2020/12/30 08:05:13;;;;;;;40.83;27.48;;;;;;;1.64;100.00;99900.69;5212991;28;20025;-71
2020/12/30 08:07:45;;;;;;;37.08;28.00;;;;;;;1.65;100.00;99904.91;5212752;28;20022;-72
2020/12/30 08:10:22;;;;;;;35.03;26.33;;;;;;;1.67;100.00;99921.16;5211988;28;20041;-71
2020/12/30 08:12:54;;;;;;;36.53;26.42;;;;;;;1.68;100.00;99914.22;5214054;28;20438;-71
2020/12/30 08:15:25;;;;;;;39.92;28.65;;;;;;;1.69;100.00;99921.88;5213017;28;20026;-71
2020/12/30 08:17:59;;;;;;;36.53;27.88;;;;;;;1.71;100.00;99921.78;5214446;28;20302;-71
2020/12/30 08:20:30;;;;;;;39.65;27.48;;;;;;;1.72;100.00;99917.44;5211272;28;20108;-72
2020/12/30 08:23:01;;;;;;;37.25;27.83;;;;;;;1.75;100.00;99927.59;5213293;28;20109;-73
2020/12/30 08:25:33;;;;;;;40.28;27.88;;;;;;;1.76;100.00;99930.06;5213893;28;20041;-71
2020/12/30 08:28:07;;;;;;;38.25;27.58;;;;;;;1.79;100.00;99929.06;5212619;28;20042;-71
2020/12/30 08:30:40;;;;;;;38.45;26.80;;;;;;;1.80;100.00;99928.94;5212530;28;20041;-71
2020/12/30 08:33:12;;;;;;;38.40;26.38;;;;;;;1.75;100.00;99918.09;5211641;28;20033;-71
2020/12/30 08:35:47;;;;;;;35.22;25.75;;;;;;;1.85;100.00;99934.63;5211815;28;20053;-73
2020/12/30 08:38:18;;;;;;;34.97;26.63;;;;;;;1.85;100.00;99928.66;5209409;28;20064;-71
2020/12/30 08:40:53;;;;;;;35.35;26.45;;;;;;;1.92;100.00;99940.25;5212957;28;20518;-71
2020/12/30 08:43:41;;;;;;;35.03;26.05;;;;;;;1.95;100.00;99946.06;5211890;28;20030;-71
2020/12/30 08:46:20;;;;;;;39.03;25.65;;;;;;;1.98;100.00;99945.03;5213737;28;20056;-71
2020/12/30 08:48:52;;;;;;;33.78;25.58;;;;;;;1.98;100.00;99950.22;5214160;28;20034;-71
2020/12/30 08:51:25;;;;;;;38.87;25.80;;;;;;;1.98;100.00;99955.38;5211818;28;20037;-74
2020/12/30 08:53:57;;;;;;;33.67;25.33;;;;;;;2.01;100.00;99954.34;5212019;28;20105;-71
2020/12/30 08:56:28;;;;;;;36.22;26.92;;;;;;;1.97;100.00;99953.72;5213765;28;20705;-71
2020/12/30 08:58:59;;;;;;;32.53;24.95;;;;;;;2.02;100.00;99959.41;5207653;28;20033;-71
2020/12/30 09:01:31;;;;;;;36.00;26.60;;;;;;;2.03;100.00;99966.22;5213013;28;20068;-71
2020/12/30 09:04:12;;;;;;;34.08;26.20;;;;;;;2.07;100.00;99965.13;5212817;28;20026;-72
2020/12/30 09:06:50;;;;;;;34.67;26.20;;;;;;;2.07;100.00;99967.69;5211668;28;20140;-71
2020/12/30 09:09:21;;;;;;;38.72;26.38;;;;;;;2.10;100.00;99971.84;5213882;28;20034;-71
2020/12/30 09:11:53;;;;;;;34.78;26.90;;;;;;;2.07;100.00;99967.69;5213611;28;20025;-71
2020/12/30 09:14:24;;;;;;;38.60;27.15;;;;;;;2.14;100.00;99984.47;5210047;28;20112;-71
2020/12/30 09:16:58;;;;;;;39.22;26.83;;;;;;;2.17;100.00;99979.13;5214047;28;20087;-71
2020/12/30 09:19:30;;;;;;;33.50;26.48;;;;;;;2.19;100.00;99966.91;5210916;28;20902;-73
2020/12/30 09:22:08;;;;;;;37.05;26.38;;;;;;;2.25;100.00;99978.63;5212547;28;20040;-71
2020/12/30 09:24:42;;;;;;;35.90;25.52;;;;;;;2.29;100.00;99976.66;5213031;28;20037;-72
2020/12/30 09:27:20;;;;;;;35.08;25.83;;;;;;;2.33;100.00;99980.72;5211056;28;20025;-71
2020/12/30 09:30:09;;;;;;;36.35;26.95;;;;;;;2.39;100.00;99995.84;5212458;28;20038;-71
2020/12/30 09:32:43;;;;;;;38.78;25.83;;;;;;;2.35;100.00;99991.75;5212053;28;20305;-71
2020/12/30 09:35:16;;;;;;;31.42;24.20;;;;;;;2.43;100.00;99992.94;5209030;28;20022;-71
2020/12/30 09:37:52;;;;;;;41.40;26.58;;;;;;;2.46;100.00;99991.91;5209990;28;20045;-71
2020/12/30 09:40:27;;;;;;;38.42;27.77;;;;;;;2.44;100.00;99993.78;5210876;28;20024;-72
2020/12/30 09:43:19;;;;;;;39.28;26.95;;;;;;;2.53;100.00;100006.09;5212311;28;20080;-72
2020/12/30 09:46:01;;;;;;;37.15;26.63;;;;;;;2.55;100.00;100011.19;5212172;28;20161;-71
2020/12/30 09:48:33;;;;;;;34.65;26.70;;;;;;;2.57;100.00;100010.13;5213466;28;20026;-71
2020/12/30 09:51:04;;;;;;;35.00;26.88;;;;;;;2.62;100.00;100018.44;5209978;28;20029;-71
2020/12/30 09:53:35;;;;;;;35.03;25.52;;;;;;;2.66;100.00;100013.91;5212605;28;20036;-72
2020/12/30 09:56:12;;;;;;;34.85;25.08;;;;;;;2.72;100.00;100004.91;5215624;28;20030;-71
2020/12/30 09:58:43;;;;;;;34.72;25.15;;;;;;;2.74;100.00;100011.63;5213980;28;20278;-72
2020/12/30 10:01:21;;;;;;;35.25;25.30;;;;;;;2.79;100.00;100017.34;5213623;28;20030;-71
2020/12/30 10:03:52;;;;;;;36.63;25.83;;;;;;;2.86;100.00;100012.59;5216808;28;20032;-72
2020/12/30 10:06:23;;;;;;;35.63;24.85;;;;;;;2.92;100.00;100012.19;5214428;28;20036;-72
2020/12/30 10:08:55;;;;;;;36.80;25.77;;;;;;;2.95;100.00;100011.97;5216540;28;20058;-71
2020/12/30 10:11:26;;;;;;;32.55;24.45;;;;;;;2.96;100.00;100018.00;5216346;28;20391;-73
2020/12/30 10:13:57;;;;;;;40.13;27.52;;;;;;;2.97;100.00;100012.72;5213043;28;20585;-72
2020/12/30 10:16:32;;;;;;;32.40;24.90;;;;;;;2.96;100.00;100021.41;5214469;28;20018;-72
2020/12/30 10:19:03;;;;;;;32.22;25.25;;;;;;;3.00;100.00;100028.03;5216457;28;20034;-70
2020/12/30 10:21:35;;;;;;;35.63;26.10;;;;;;;3.04;100.00;100029.47;5214102;28;20045;-70
2020/12/30 10:24:06;;;;;;;34.85;27.42;;;;;;;3.09;100.00;100026.59;5215764;28;20029;-71
2020/12/30 10:26:37;;;;;;;38.70;28.65;;;;;;;3.14;100.00;100034.84;5213911;28;20096;-70
2020/12/30 10:29:08;;;;;;;37.63;29.17;;;;;;;3.22;100.00;100031.75;5212821;28;20022;-70
2020/12/30 10:31:40;;;;;;;35.90;28.48;;;;;;;3.16;100.00;100022.66;5215561;28;20041;-71
2020/12/30 10:34:11;;;;;;;39.42;30.48;;;;;;;3.26;100.00;100035.78;5214744;28;20372;-70
2020/12/30 10:36:42;;;;;;;39.03;30.02;;;;;;;3.24;100.00;100030.72;5211633;28;20060;-70
2020/12/30 10:39:14;;;;;;;35.15;30.45;;;;;;;3.24;100.00;100033.31;5215597;28;20371;-70
2020/12/30 10:41:45;;;;;;;44.13;31.83;;;;;;;3.26;100.00;100034.06;5216541;28;20021;-69
2020/12/30 10:44:16;;;;;;;43.65;33.20;;;;;;;3.27;100.00;100038.31;5214122;28;20137;-69
2020/12/30 10:46:48;;;;;;;46.08;32.33;;;;;;;3.26;100.00;100033.19;5215941;28;20030;-69
2020/12/30 10:49:20;;;;;;;44.83;33.60;;;;;;;3.31;100.00;100036.34;5212465;28;20026;-70
2020/12/30 10:51:51;;;;;;;43.33;32.95;;;;;;;3.31;100.00;100026.81;5215442;28;20057;-69
2020/12/30 10:54:23;;;;;;;43.10;32.90;;;;;;;3.32;100.00;100037.97;5214634;28;20061;-70
2020/12/30 10:56:54;;;;;;;46.70;33.67;;;;;;;3.36;100.00;100031.66;5213455;28;20601;-70
2020/12/30 10:59:26;;;;;;;44.42;33.90;;;;;;;3.41;100.00;100032.19;5211615;28;20557;-71
2020/12/30 11:01:57;;;;;;;45.38;34.95;;;;;;;3.41;100.00;100032.19;5211724;28;20380;-71
2020/12/30 11:04:28;;;;;;;46.63;35.08;;;;;;;3.42;100.00;100028.66;5212903;28;20092;-70
2020/12/30 11:07:01;;;;;;;54.10;35.45;;;;;;;3.44;100.00;100036.31;5213021;28;20025;-71
2020/12/30 11:09:33;;;;;;;49.72;35.47;;;;;;;3.42;100.00;100029.50;5211222;28;20065;-70
2020/12/30 11:12:04;;;;;;;43.13;34.30;;;;;;;3.44;100.00;100025.97;5198576;28;20149;-70
2020/12/30 11:14:35;;;;;;;45.10;35.75;;;;;;;3.45;100.00;100033.66;5205198;28;20044;-73
2020/12/30 11:17:07;;;;;;;45.83;35.53;;;;;;;3.46;100.00;100024.94;5212611;28;20582;-72
2020/12/30 11:19:38;;;;;;;48.42;36.15;;;;;;;3.46;100.00;100022.34;5213128;28;20030;-72
2020/12/30 11:22:09;;;;;;;43.95;35.10;;;;;;;3.51;100.00;100030.63;5212336;28;20026;-70
2020/12/30 11:24:40;;;;;;;45.53;34.72;;;;;;;3.55;100.00;100024.28;5211424;28;20064;-72
2020/12/30 11:27:11;;;;;;;48.08;34.45;;;;;;;3.56;100.00;100025.97;5212854;28;20084;-74
2020/12/30 11:29:43;;;;;;;45.20;33.88;;;;;;;3.57;100.00;100026.78;5213242;28;20038;-71
2020/12/30 11:32:14;;;;;;;47.33;33.40;;;;;;;3.56;100.00;100030.28;5214057;28;20032;-71
2020/12/30 11:34:45;;;;;;;42.25;33.85;;;;;;;3.56;100.00;100035.47;5213710;28;20061;-72
2020/12/30 11:37:17;;;;;;;44.70;34.80;;;;;;;3.59;100.00;100035.28;5213448;28;20034;-72
2020/12/30 11:39:48;;;;;;;45.00;33.83;;;;;;;3.61;100.00;100039.41;5213002;28;20064;-72
2020/12/30 11:42:20;;;;;;;44.63;34.00;;;;;;;3.63;100.00;100028.94;5213830;28;20034;-72